createdAt,value
2018-07-31T00:01:29.637Z,18.50
2018-07-31T00:04:28.148Z,17.67
2018-07-31T00:07:26.620Z,17.30
2018-07-31T00:10:24.897Z,19.17
2018-07-31T00:13:23.578Z,19.37
2018-07-31T00:16:23.266Z,19.30
2018-07-31T00:19:21.914Z,19.03
2018-07-31T00:22:21.424Z,20.30
2018-07-31T00:25:19.473Z,19.20
2018-07-31T00:28:18.160Z,19.07
2018-07-31T00:31:16.267Z,20.47
2018-07-31T00:34:14.883Z,18.47
2018-07-31T00:37:13.137Z,19.40
2018-07-31T00:40:12.454Z,19.13
2018-07-31T00:43:10.764Z,19.17
2018-07-31T00:46:08.972Z,18.67
2018-07-31T00:49:08.852Z,18.70
2018-07-31T00:52:07.132Z,19.57
2018-07-31T00:55:05.176Z,18.73
2018-07-31T00:58:04.684Z,21.33
2018-07-31T01:01:03.966Z,20.70
2018-07-31T01:04:02.348Z,21.90
2018-07-31T01:07:00.517Z,20.50
2018-07-31T01:09:58.155Z,20.80
2018-07-31T01:12:56.547Z,20.20
2018-07-31T01:15:55.360Z,21.37
2018-07-31T01:18:53.462Z,19.93
2018-07-31T01:21:53.131Z,20.90
2018-07-31T01:24:51.715Z,20.30
2018-07-31T01:27:50.872Z,20.47
2018-07-31T01:30:49.167Z,20.03
2018-07-31T01:33:47.665Z,21.00
2018-07-31T01:36:46.008Z,20.70
2018-07-31T01:39:44.070Z,22.60
2018-07-31T01:42:42.376Z,20.63
2018-07-31T01:45:40.350Z,20.23
2018-07-31T01:48:39.770Z,22.33
2018-07-31T01:51:38.151Z,22.20
2018-07-31T01:54:36.528Z,22.07
2018-07-31T01:57:34.393Z,22.00
2018-07-31T02:00:33.388Z,21.23
2018-07-31T02:03:31.840Z,20.90
2018-07-31T02:06:34.291Z,22.47
2018-07-31T02:09:33.129Z,23.07
2018-07-31T02:12:31.241Z,22.83
2018-07-31T02:15:29.627Z,25.23
2018-07-31T02:18:27.952Z,24.37
2018-07-31T02:21:26.239Z,23.73
2018-07-31T02:24:25.509Z,24.10
2018-07-31T02:27:23.789Z,24.50
2018-07-31T02:30:29.289Z,24.43
2018-07-31T02:33:27.512Z,23.83
2018-07-31T02:36:25.615Z,23.53
2018-07-31T02:39:23.838Z,24.43
2018-07-31T02:42:21.900Z,23.50
2018-07-31T02:45:23.115Z,24.67
2018-07-31T02:48:22.388Z,25.93
2018-07-31T02:51:20.464Z,26.87
2018-07-31T02:54:18.910Z,27.57
2018-07-31T02:57:17.485Z,26.97
2018-07-31T03:00:16.566Z,26.53
2018-07-31T03:03:14.988Z,24.43
2018-07-31T03:06:13.098Z,25.37
2018-07-31T03:09:12.487Z,22.17
2018-07-31T03:12:10.948Z,22.48
2018-07-31T03:15:09.325Z,22.57
2018-07-31T03:18:07.799Z,24.47
2018-07-31T03:21:07.116Z,24.53
2018-07-31T03:24:06.521Z,24.13
2018-07-31T03:27:04.840Z,25.60
2018-07-31T03:30:02.888Z,27.97
2018-07-31T03:33:00.923Z,26.23
2018-07-31T03:35:59.953Z,26.83
2018-07-31T03:38:57.996Z,27.90
2018-07-31T03:41:56.466Z,27.30
2018-07-31T03:44:55.748Z,27.07
2018-07-31T03:47:55.030Z,25.47
2018-07-31T03:50:53.196Z,25.43
2018-07-31T03:53:51.340Z,26.33
2018-07-31T03:56:49.594Z,26.00
2018-07-31T03:59:47.564Z,27.07
2018-07-31T04:02:45.780Z,25.67
2018-07-31T04:05:44.005Z,27.43
2018-07-31T04:08:42.355Z,29.43
2018-07-31T04:11:41.282Z,28.17
2018-07-31T04:14:39.604Z,26.03
2018-07-31T04:17:41.045Z,26.37
2018-07-31T04:20:39.287Z,27.57
2018-07-31T04:23:38.693Z,28.13
2018-07-31T04:26:36.771Z,28.57
2018-07-31T04:29:35.321Z,28.90
2018-07-31T04:32:33.704Z,29.23
2018-07-31T04:35:31.964Z,29.93
2018-07-31T04:38:30.149Z,29.93
2018-07-31T04:41:28.290Z,27.57
2018-07-31T04:44:28.729Z,27.43
2018-07-31T04:47:27.989Z,28.17
2018-07-31T04:50:26.476Z,28.27
2018-07-31T04:53:24.876Z,27.00
2018-07-31T04:56:24.074Z,26.90
2018-07-31T04:59:23.873Z,26.40
2018-07-31T05:02:22.509Z,25.83
2018-07-31T05:05:20.441Z,26.00
2018-07-31T05:08:18.878Z,25.53
2018-07-31T05:11:16.999Z,26.17
2018-07-31T05:14:17.402Z,23.53
2018-07-31T05:17:15.768Z,23.37
2018-07-31T05:20:15.159Z,22.17
2018-07-31T05:23:14.532Z,23.77
2018-07-31T05:26:12.766Z,23.67
2018-07-31T05:29:12.401Z,21.77
2018-07-31T05:32:10.879Z,22.10
2018-07-31T05:35:10.479Z,20.83
2018-07-31T05:38:08.710Z,19.67
2018-07-31T05:41:07.265Z,19.30
2018-07-31T05:44:06.465Z,19.00
2018-07-31T05:47:04.217Z,18.33
2018-07-31T05:50:02.870Z,17.23
2018-07-31T05:53:00.881Z,16.93
2018-07-31T05:55:59.032Z,15.63
2018-07-31T05:59:00.508Z,16.40
2018-07-31T06:01:59.045Z,15.87
2018-07-31T06:04:57.278Z,15.97
2018-07-31T06:07:55.480Z,15.97
2018-07-31T06:10:54.836Z,16.10
2018-07-31T06:13:53.427Z,16.40
2018-07-31T06:16:51.676Z,16.27
2018-07-31T06:19:49.872Z,14.30
2018-07-31T06:22:49.019Z,14.40
2018-07-31T06:25:47.339Z,13.67
2018-07-31T06:28:45.572Z,12.57
2018-07-31T06:31:43.724Z,12.83
2018-07-31T06:34:42.105Z,13.10
2018-07-31T06:37:41.394Z,14.13
2018-07-31T06:40:39.638Z,14.03
2018-07-31T06:43:37.969Z,12.57
2018-07-31T06:46:38.311Z,12.37
2018-07-31T06:49:36.692Z,11.30
2018-07-31T06:52:35.565Z,11.30
2018-07-31T06:55:33.752Z,11.43
2018-07-31T06:58:32.302Z,10.73
2018-07-31T07:01:30.477Z,11.30
2018-07-31T07:04:29.639Z,12.07
2018-07-31T07:07:28.567Z,11.30
2018-07-31T07:10:26.671Z,10.43
2018-07-31T07:13:25.996Z,10.67
2018-07-31T07:16:24.662Z,15.37
2018-07-31T07:19:23.140Z,10.30
2018-07-31T07:22:22.404Z,10.23
2018-07-31T07:25:20.743Z,10.60
2018-07-31T07:28:18.720Z,10.57
2018-07-31T07:31:17.122Z,9.87
2018-07-31T07:34:16.364Z,9.77
2018-07-31T07:37:14.665Z,9.70
2018-07-31T07:40:14.279Z,9.93
2018-07-31T07:43:12.412Z,10.20
2018-07-31T07:46:10.560Z,10.67
2018-07-31T07:49:10.736Z,9.80
2018-07-31T07:52:09.872Z,9.67
2018-07-31T07:55:08.029Z,9.23
2018-07-31T07:58:06.293Z,9.20
2018-07-31T08:01:06.511Z,9.50
2018-07-31T08:04:05.306Z,9.53
2018-07-31T08:07:03.343Z,8.87
2018-07-31T08:10:01.493Z,9.30
2018-07-31T08:13:00.483Z,8.77
2018-07-31T08:16:05.907Z,9.27
2018-07-31T08:19:04.701Z,9.20
2018-07-31T08:22:03.144Z,9.17
2018-07-31T08:25:01.225Z,9.20
2018-07-31T08:27:59.309Z,9.53
2018-07-31T08:30:58.341Z,9.60
2018-07-31T08:33:56.675Z,10.60
2018-07-31T08:36:54.981Z,9.57
2018-07-31T08:39:52.928Z,9.67
2018-07-31T08:42:52.153Z,10.00
2018-07-31T08:45:50.605Z,9.97
2018-07-31T08:48:48.589Z,9.83
2018-07-31T08:51:46.596Z,9.77
2018-07-31T08:54:44.993Z,10.10
2018-07-31T08:57:44.280Z,10.27
2018-07-31T09:00:42.961Z,10.07
2018-07-31T09:03:40.890Z,9.27
2018-07-31T09:06:39.387Z,9.90
2018-07-31T09:09:39.171Z,9.90
2018-07-31T09:12:37.657Z,11.33
2018-07-31T09:15:36.334Z,11.47
2018-07-31T09:18:35.684Z,10.57
2018-07-31T09:21:34.166Z,10.23
2018-07-31T09:24:32.509Z,9.80
2018-07-31T09:27:30.803Z,9.60
2018-07-31T09:30:28.874Z,9.90
2018-07-31T09:33:27.424Z,10.60
2018-07-31T09:36:26.063Z,10.67
2018-07-31T09:39:31.238Z,10.60
2018-07-31T09:42:29.659Z,9.13
2018-07-31T09:45:27.604Z,9.43
2018-07-31T09:48:27.081Z,9.63
2018-07-31T09:51:25.093Z,8.87
2018-07-31T09:54:23.337Z,8.93
2018-07-31T09:57:21.264Z,8.40
2018-07-31T10:00:24.373Z,8.30
2018-07-31T10:03:22.757Z,8.60
2018-07-31T10:06:21.769Z,8.40
2018-07-31T10:09:22.687Z,8.03
2018-07-31T10:12:21.168Z,8.75
2018-07-31T10:15:19.127Z,8.40
2018-07-31T10:18:17.361Z,9.20
2018-07-31T10:21:15.423Z,8.93
2018-07-31T10:24:13.513Z,8.33
2018-07-31T10:27:11.764Z,9.53
2018-07-31T10:30:10.125Z,10.20
2018-07-31T10:33:08.836Z,9.60
2018-07-31T10:36:07.744Z,8.97
2018-07-31T10:39:06.454Z,9.30
2018-07-31T10:42:05.541Z,8.90
2018-07-31T10:45:03.604Z,9.03
2018-07-31T10:48:01.883Z,8.73
2018-07-31T10:50:59.750Z,9.70
2018-07-31T10:53:58.305Z,10.32
2018-07-31T10:56:57.917Z,10.30
2018-07-31T10:59:55.685Z,9.13
2018-07-31T11:02:54.113Z,9.45
2018-07-31T11:05:52.333Z,9.00
2018-07-31T11:08:50.428Z,8.73
2018-07-31T11:11:49.459Z,8.80
2018-07-31T11:14:47.784Z,8.83
2018-07-31T11:17:45.800Z,8.70
2018-07-31T11:20:44.857Z,8.88
2018-07-31T11:23:43.059Z,8.53
2018-07-31T11:26:41.127Z,9.13
2018-07-31T11:29:39.941Z,8.90
2018-07-31T11:32:38.116Z,8.88
2018-07-31T11:35:36.568Z,8.78
2018-07-31T11:38:35.463Z,8.20
2018-07-31T11:41:33.530Z,7.70
2018-07-31T11:44:32.623Z,8.20
2018-07-31T11:47:33.304Z,7.62
2018-07-31T11:50:31.660Z,8.60
2018-07-31T11:53:29.577Z,8.58
2018-07-31T11:56:27.374Z,9.18
2018-07-31T11:59:25.651Z,9.80
2018-07-31T12:02:26.459Z,8.58
2018-07-31T12:05:26.857Z,8.10
2018-07-31T12:08:26.166Z,7.67
2018-07-31T12:11:24.674Z,7.45
2018-07-31T12:14:23.698Z,7.22
2018-07-31T12:17:21.983Z,7.25
2018-07-31T12:20:20.866Z,7.25
2018-07-31T12:23:18.586Z,7.10
2018-07-31T12:26:16.968Z,7.37
2018-07-31T12:29:15.251Z,7.55
2018-07-31T12:32:13.303Z,8.48
2018-07-31T12:35:11.152Z,8.08
2018-07-31T12:38:09.530Z,7.85
2018-07-31T12:41:07.592Z,8.43
2018-07-31T12:44:06.980Z,8.05
2018-07-31T12:47:05.248Z,7.70
2018-07-31T12:50:04.553Z,8.15
2018-07-31T12:53:02.800Z,7.33
2018-07-31T12:56:02.051Z,7.62
2018-07-31T12:59:00.884Z,7.35
2018-07-31T13:01:59.322Z,7.47
2018-07-31T13:04:57.689Z,6.90
2018-07-31T13:07:55.472Z,7.00
2018-07-31T13:10:53.620Z,6.53
2018-07-31T13:13:51.654Z,6.17
2018-07-31T13:16:49.627Z,5.90
2018-07-31T13:19:48.688Z,5.08
2018-07-31T13:22:46.709Z,5.37
2018-07-31T13:25:46.537Z,5.40
2018-07-31T13:28:44.272Z,5.28
2018-07-31T13:31:42.560Z,4.75
2018-07-31T13:34:40.900Z,5.03
2018-07-31T13:37:38.886Z,4.58
2018-07-31T13:40:37.377Z,4.45
2018-07-31T13:43:35.865Z,4.65
2018-07-31T13:46:34.352Z,4.67
2018-07-31T13:49:33.713Z,4.15
2018-07-31T13:52:31.775Z,4.58
2018-07-31T13:55:29.941Z,4.72
2018-07-31T13:58:27.992Z,4.90
2018-07-31T14:01:26.578Z,4.87
2018-07-31T14:04:25.265Z,5.15
2018-07-31T14:07:23.473Z,4.92
2018-07-31T14:10:21.709Z,5.17
2018-07-31T14:13:19.644Z,5.12
2018-07-31T14:16:17.897Z,5.00
2018-07-31T14:19:16.093Z,5.20
2018-07-31T14:22:15.462Z,4.72
2018-07-31T14:25:13.895Z,5.20
2018-07-31T14:28:11.975Z,4.87
2018-07-31T14:31:09.913Z,5.00
2018-07-31T14:34:09.156Z,4.53
2018-07-31T14:37:07.374Z,5.75
2018-07-31T14:40:05.552Z,4.95
2018-07-31T14:43:03.984Z,4.62
2018-07-31T14:46:10.406Z,5.20
2018-07-31T14:49:09.268Z,5.28
2018-07-31T14:52:07.902Z,4.83
2018-07-31T14:55:06.580Z,4.90
2018-07-31T14:58:06.307Z,5.10
2018-07-31T15:01:04.442Z,5.30
2018-07-31T15:04:03.850Z,5.25
2018-07-31T15:07:02.297Z,5.55
2018-07-31T15:10:00.730Z,6.35
2018-07-31T15:12:59.401Z,5.42
2018-07-31T15:15:58.182Z,5.35
2018-07-31T15:18:56.312Z,5.50
2018-07-31T15:21:55.033Z,4.95
2018-07-31T15:24:53.256Z,4.97
2018-07-31T15:27:51.815Z,5.67
2018-07-31T15:30:50.472Z,5.10
2018-07-31T15:33:48.540Z,5.35
2018-07-31T15:36:46.970Z,5.42
2018-07-31T15:39:45.302Z,5.72
2018-07-31T15:42:43.621Z,5.20
2018-07-31T15:45:41.584Z,5.10
2018-07-31T15:48:41.408Z,5.15
2018-07-31T15:51:40.913Z,5.05
2018-07-31T15:54:40.664Z,4.97
2018-07-31T15:57:39.084Z,4.70
2018-07-31T16:00:38.202Z,5.12
2018-07-31T16:03:36.861Z,4.92
2018-07-31T16:06:35.399Z,5.05
2018-07-31T16:09:35.137Z,4.95
2018-07-31T16:12:34.330Z,4.97
2018-07-31T16:15:32.848Z,4.55
2018-07-31T16:18:31.374Z,4.87
2018-07-31T16:21:29.446Z,4.70
2018-07-31T16:24:27.596Z,5.05
2018-07-31T16:27:25.912Z,5.08
2018-07-31T16:30:24.985Z,5.10
2018-07-31T16:33:23.322Z,5.17
2018-07-31T16:36:21.484Z,4.78
2018-07-31T16:39:21.500Z,4.83
2018-07-31T16:42:19.618Z,5.10
2018-07-31T16:45:17.712Z,5.33
2018-07-31T16:48:17.191Z,5.12
2018-07-31T16:51:16.075Z,5.08
2018-07-31T16:54:14.244Z,4.97
2018-07-31T16:57:12.320Z,4.95
2018-07-31T17:00:11.633Z,5.30
2018-07-31T17:03:09.785Z,5.62
2018-07-31T17:06:08.209Z,5.17
2018-07-31T17:09:07.829Z,5.60
2018-07-31T17:12:05.962Z,5.53
2018-07-31T17:15:04.240Z,5.87
2018-07-31T17:18:02.507Z,6.10
2018-07-31T17:21:02.127Z,5.22
2018-07-31T17:24:00.452Z,5.78
2018-07-31T17:26:58.918Z,5.80
2018-07-31T17:29:58.315Z,5.90
2018-07-31T17:32:56.610Z,5.40
2018-07-31T17:35:55.185Z,6.30
2018-07-31T17:38:53.758Z,6.50
2018-07-31T17:41:51.830Z,6.30
2018-07-31T17:44:50.426Z,7.85
2018-07-31T17:47:48.634Z,8.58
2018-07-31T17:50:47.119Z,8.88
2018-07-31T17:53:45.131Z,7.75
2018-07-31T17:56:43.344Z,6.78
2018-07-31T17:59:41.885Z,7.83
2018-07-31T18:02:40.528Z,6.78
2018-07-31T18:05:38.312Z,6.83
2018-07-31T18:08:36.930Z,6.75
2018-07-31T18:11:35.257Z,7.83
2018-07-31T18:14:33.867Z,7.85
2018-07-31T18:17:31.648Z,8.10
2018-07-31T18:20:32.908Z,7.95
2018-07-31T18:23:31.252Z,7.73
2018-07-31T18:26:29.277Z,8.57
2018-07-31T18:29:27.699Z,8.40
2018-07-31T18:32:26.897Z,8.43
2018-07-31T18:35:25.436Z,8.47
2018-07-31T18:38:23.850Z,8.70
2018-07-31T18:41:22.220Z,8.80
2018-07-31T18:44:20.541Z,9.90
2018-07-31T18:47:21.726Z,9.97
2018-07-31T18:50:20.904Z,9.97
2018-07-31T18:53:19.105Z,9.43
2018-07-31T18:56:17.946Z,9.57
2018-07-31T18:59:16.684Z,10.53
2018-07-31T19:02:14.980Z,9.90
2018-07-31T19:05:13.112Z,9.70
2018-07-31T19:08:11.907Z,10.00
2018-07-31T19:11:10.351Z,9.00
2018-07-31T19:14:08.536Z,9.87
2018-07-31T19:17:06.831Z,9.63
2018-07-31T19:20:06.078Z,9.03
2018-07-31T19:23:04.149Z,9.10
2018-07-31T19:26:02.715Z,9.23
2018-07-31T19:29:00.675Z,10.43
2018-07-31T19:31:58.540Z,10.07
2018-07-31T19:34:56.686Z,9.80
2018-07-31T19:37:55.319Z,9.97
2018-07-31T19:40:53.357Z,10.10
2018-07-31T19:43:52.933Z,10.37
2018-07-31T19:46:52.176Z,10.10
2018-07-31T19:49:50.876Z,10.87
2018-07-31T19:52:49.400Z,10.40
2018-07-31T19:55:47.308Z,10.67
2018-07-31T19:58:45.789Z,10.17
2018-07-31T20:01:43.872Z,11.33
2018-07-31T20:04:41.968Z,11.87
2018-07-31T20:07:41.219Z,12.53
2018-07-31T20:10:39.031Z,11.40
2018-07-31T20:13:37.064Z,11.70
2018-07-31T20:16:35.039Z,11.47
2018-07-31T20:19:33.033Z,11.37
2018-07-31T20:22:31.369Z,11.90
2018-07-31T20:25:29.649Z,13.00
2018-07-31T20:28:28.028Z,12.00
2018-07-31T20:31:25.904Z,11.70
2018-07-31T20:34:23.831Z,11.90
2018-07-31T20:37:22.150Z,11.43
2018-07-31T20:40:20.961Z,12.27
2018-07-31T20:43:20.606Z,11.67
2018-07-31T20:46:19.952Z,11.60
2018-07-31T20:49:18.633Z,11.50
2018-07-31T20:52:16.875Z,12.60
2018-07-31T20:55:15.072Z,10.60
2018-07-31T20:58:13.212Z,11.57
2018-07-31T21:01:11.209Z,12.33
2018-07-31T21:04:09.434Z,12.23
2018-07-31T21:07:07.745Z,11.97
2018-07-31T21:10:05.742Z,11.57
2018-07-31T21:13:04.035Z,12.25
2018-07-31T21:16:02.683Z,12.27
2018-07-31T21:19:01.451Z,12.93
2018-07-31T21:22:05.789Z,12.23
2018-07-31T21:25:03.867Z,12.03
2018-07-31T21:28:01.990Z,12.83
2018-07-31T21:31:01.168Z,12.27
2018-07-31T21:34:00.829Z,12.03
2018-07-31T21:36:58.892Z,12.13
2018-07-31T21:39:59.139Z,11.17
2018-07-31T21:42:57.288Z,12.67
2018-07-31T21:45:56.240Z,12.50
2018-07-31T21:48:54.352Z,11.87
2018-07-31T21:51:52.592Z,12.60
2018-07-31T21:54:52.712Z,12.50
2018-07-31T21:57:50.996Z,12.43
2018-07-31T22:00:56.216Z,13.00
2018-07-31T22:03:54.466Z,12.63
2018-07-31T22:06:53.958Z,12.67
2018-07-31T22:09:53.032Z,12.17
2018-07-31T22:12:51.088Z,12.33
2018-07-31T22:15:51.104Z,12.70
2018-07-31T22:18:49.288Z,13.47
2018-07-31T22:21:48.036Z,13.53
2018-07-31T22:24:46.420Z,14.00
2018-07-31T22:27:45.861Z,14.23
2018-07-31T22:30:44.011Z,13.90
2018-07-31T22:33:43.273Z,13.90
2018-07-31T22:36:41.332Z,14.00
2018-07-31T22:39:40.392Z,14.27
2018-07-31T22:42:38.736Z,14.10
2018-07-31T22:45:38.061Z,15.10
2018-07-31T22:48:37.453Z,14.93
2018-07-31T22:51:35.821Z,14.70
2018-07-31T22:54:35.266Z,14.93
2018-07-31T22:57:33.577Z,14.30
2018-07-31T23:00:32.546Z,14.97
2018-07-31T23:03:30.632Z,16.00
2018-07-31T23:06:30.145Z,16.10
2018-07-31T23:09:30.508Z,15.57
2018-07-31T23:12:28.435Z,15.37
2018-07-31T23:15:27.520Z,15.63
2018-07-31T23:18:25.738Z,15.07
2018-07-31T23:21:24.903Z,14.80
2018-07-31T23:24:23.964Z,16.00
2018-07-31T23:27:25.281Z,16.10
2018-07-31T23:30:23.292Z,16.10
2018-07-31T23:33:22.662Z,15.30
2018-07-31T23:36:20.925Z,15.63
2018-07-31T23:39:22.172Z,15.70
2018-07-31T23:42:21.260Z,15.27
2018-07-31T23:45:19.301Z,15.53
2018-07-31T23:48:17.496Z,14.77
2018-07-31T23:51:15.560Z,16.80
2018-07-31T23:54:14.183Z,16.43
2018-07-31T23:57:12.380Z,16.53
